Time;durP1;ratioP1;P1;durP2;ratioP2;P2;SDS_P1;SDS_P2;PMS_P1;PMS_P2;Temp;Humidity;BMP_temperature;BMP_pressure;BME280_temperature;BME280_humidity;BME280_pressure;Samples;Min_cycle;Max_cycle;Signal;HPM_P1;HPM_P2
2021/12/12 00:01:18;;;;;;;;;98.20;94.80;;;;;;;;5052175;28;9730;-77
2021/12/12 00:03:48;;;;;;;;;95.40;84.00;;;;;;;;5050475;27;8799;-77
2021/12/12 00:06:17;;;;;;;;;91.25;80.50;;;;;;;;5057442;27;8827;-77
2021/12/12 00:08:44;;;;;;;;;110.00;109.50;;;;;;;;5050171;28;8834;-77
2021/12/12 00:11:12;;;;;;;;;110.40;109.80;;;;;;;;5044366;27;8888;-77
2021/12/12 00:14:04;;;;;;;;;158.80;154.00;;;;;;;;5051988;27;8804;-77
2021/12/12 00:16:30;;;;;;;;;143.50;142.00;;;;;;;;5062279;28;11520;-77
2021/12/12 00:18:56;;;;;;;;;153.60;153.40;;;;;;;;5049989;28;8768;-77
2021/12/12 00:21:23;;;;;;;;;162.50;160.33;;;;;;;;5050108;28;8827;-77
2021/12/12 00:23:49;;;;;;;;;170.83;168.00;;;;;;;;5051290;27;8780;-77
2021/12/12 00:26:14;;;;;;;;;162.83;161.17;;;;;;;;5051447;28;8831;-77
2021/12/12 00:28:40;;;;;;;;;165.40;164.00;;;;;;;;5051354;27;8969;-78
2021/12/12 00:31:09;;;;;;;;;145.80;141.80;;;;;;;;5051828;28;8935;-77
2021/12/12 00:33:35;;;;;;;;;142.00;139.50;;;;;;;;5051526;27;8796;-78
2021/12/12 00:36:01;;;;;;;;;130.17;129.33;;;;;;;;5051022;28;8808;-78
2021/12/12 00:38:28;;;;;;;;;114.50;111.00;;;;;;;;5051298;27;8827;-78
2021/12/12 00:40:55;;;;;;;;;112.50;111.00;;;;;;;;5051155;28;8819;-78
2021/12/12 00:43:27;;;;;;;;;119.40;115.00;;;;;;;;5058674;27;8793;-78
2021/12/12 00:45:54;;;;;;;;;126.60;121.80;;;;;;;;5054710;27;8920;-78
2021/12/12 00:48:19;;;;;;;;;134.80;133.00;;;;;;;;5051242;27;8938;-79
2021/12/12 00:50:45;;;;;;;;;137.60;136.40;;;;;;;;5051317;28;8910;-79
2021/12/12 00:53:11;;;;;;;;;135.20;132.20;;;;;;;;5051364;27;8792;-79
2021/12/12 00:55:38;;;;;;;;;114.40;114.40;;;;;;;;5051430;28;8780;-79
2021/12/12 00:58:08;;;;;;;;;164.60;163.40;;;;;;;;5050983;27;8813;-79
2021/12/12 01:00:37;;;;;;;;;135.60;134.60;;;;;;;;5050200;28;8968;-79
2021/12/12 01:03:03;;;;;;;;;153.80;151.20;;;;;;;;5049758;27;9427;-80
2021/12/12 01:05:29;;;;;;;;;136.00;134.25;;;;;;;;5050415;27;8865;-80
2021/12/12 01:07:54;;;;;;;;;151.40;150.00;;;;;;;;5057575;27;10863;-80
2021/12/12 01:10:25;;;;;;;;;144.80;144.80;;;;;;;;5050271;28;8907;-80
2021/12/12 01:12:52;;;;;;;;;143.50;143.50;;;;;;;;5110793;27;8780;-80
2021/12/12 01:15:18;;;;;;;;;140.60;140.60;;;;;;;;5051412;27;9694;-80
2021/12/12 01:17:45;;;;;;;;;133.20;133.00;;;;;;;;5050863;27;11222;-80
2021/12/12 01:20:27;;;;;;;;;156.67;156.17;;;;;;;;5049680;28;8832;-80
2021/12/12 01:22:54;;;;;;;;;162.00;159.33;;;;;;;;5050947;28;8752;-80
2021/12/12 01:25:22;;;;;;;;;164.40;164.40;;;;;;;;5050629;28;8826;-80
2021/12/12 01:27:47;;;;;;;;;199.67;199.17;;;;;;;;5050772;27;8764;-80
2021/12/12 01:30:13;;;;;;;;;208.00;206.67;;;;;;;;5050969;27;8812;-80
2021/12/12 01:32:39;;;;;;;;;202.40;202.40;;;;;;;;5049469;28;8834;-81
2021/12/12 01:35:14;;;;;;;;;208.33;207.00;;;;;;;;5049566;27;8804;-81
2021/12/12 01:37:43;;;;;;;;;214.00;213.33;;;;;;;;5050686;28;8904;-81
2021/12/12 01:40:11;;;;;;;;;200.33;199.00;;;;;;;;5050601;27;8882;-81
2021/12/12 01:42:39;;;;;;;;;223.83;223.83;;;;;;;;5050836;28;8787;-81
2021/12/12 01:45:17;;;;;;;;;215.60;214.40;;;;;;;;5086933;27;8814;-81
2021/12/12 01:47:46;;;;;;;;;218.67;213.17;;;;;;;;5049194;27;8846;-81
2021/12/12 01:50:14;;;;;;;;;220.86;219.29;;;;;;;;5049345;28;8741;-81
2021/12/12 01:52:40;;;;;;;;;221.50;220.83;;;;;;;;5050090;27;8781;-81
2021/12/12 01:55:12;;;;;;;;;231.67;230.83;;;;;;;;5050598;27;8804;-81
2021/12/12 01:57:39;;;;;;;;;211.80;211.80;;;;;;;;5050547;27;8804;-81
2021/12/12 02:00:14;;;;;;;;;216.17;216.17;;;;;;;;5050796;28;8824;-81
2021/12/12 02:02:40;;;;;;;;;224.67;224.67;;;;;;;;5050245;27;8800;-81
2021/12/12 02:05:10;;;;;;;;;223.50;222.33;;;;;;;;5050509;27;8816;-81
2021/12/12 02:07:38;;;;;;;;;231.20;228.60;;;;;;;;5113487;27;8942;-81
2021/12/12 02:10:07;;;;;;;;;250.33;250.33;;;;;;;;5041666;27;10631;-81
2021/12/12 02:12:33;;;;;;;;;261.33;259.00;;;;;;;;5048209;27;8898;-81
2021/12/12 02:14:59;;;;;;;;;268.20;266.40;;;;;;;;5050267;28;8847;-81
2021/12/12 02:17:34;;;;;;;;;268.00;268.00;;;;;;;;5050374;27;8752;-81
2021/12/12 02:20:12;;;;;;;;;261.00;261.00;;;;;;;;5048812;27;8852;-81
2021/12/12 02:23:04;;;;;;;;;271.00;271.00;;;;;;;;5050119;27;8826;-81
2021/12/12 02:36:30;;;;;;;;;276.20;276.20;;;;;;;;5050416;28;8804;-81
2021/12/12 02:38:56;;;;;;;;;270.83;270.83;;;;;;;;5036623;28;8755;-81
2021/12/12 02:41:22;;;;;;;;;292.60;292.60;;;;;;;;5048502;28;8811;-81
2021/12/12 02:43:50;;;;;;;;;292.50;290.83;;;;;;;;5052811;27;8748;-80
2021/12/12 02:46:18;;;;;;;;;285.00;285.00;;;;;;;;5056760;27;8777;-80
2021/12/12 02:48:46;;;;;;;;;270.50;270.50;;;;;;;;5049723;27;8800;-80
2021/12/12 02:51:13;;;;;;;;;269.50;269.17;;;;;;;;5049963;27;8788;-80
2021/12/12 02:53:43;;;;;;;;;266.50;265.17;;;;;;;;5048640;27;8857;-80
2021/12/12 02:56:11;;;;;;;;;247.33;246.33;;;;;;;;5049874;28;9844;-80
2021/12/12 02:58:37;;;;;;;;;236.00;235.60;;;;;;;;5048788;27;8869;-80
2021/12/12 03:01:17;;;;;;;;;239.40;239.00;;;;;;;;5051249;27;8834;-80
2021/12/12 03:03:43;;;;;;;;;247.00;245.80;;;;;;;;5052729;28;8784;-80
2021/12/12 03:06:11;;;;;;;;;249.00;249.00;;;;;;;;5055817;27;9747;-80
2021/12/12 03:08:38;;;;;;;;;236.80;236.60;;;;;;;;5052988;28;8928;-80
2021/12/12 03:11:04;;;;;;;;;226.17;225.17;;;;;;;;5041040;27;8788;-80
2021/12/12 03:13:29;;;;;;;;;226.00;224.40;;;;;;;;5053024;27;9861;-81
2021/12/12 03:15:54;;;;;;;;;225.40;224.80;;;;;;;;5052328;28;8898;-80
2021/12/12 03:18:23;;;;;;;;;223.00;220.80;;;;;;;;5052935;27;8927;-80
2021/12/12 03:20:51;;;;;;;;;229.33;229.33;;;;;;;;5052200;28;8796;-80
2021/12/12 03:23:22;;;;;;;;;235.00;233.33;;;;;;;;5052885;27;8804;-80
2021/12/12 03:25:52;;;;;;;;;223.17;222.50;;;;;;;;5052163;28;8812;-81
2021/12/12 03:28:19;;;;;;;;;234.17;234.17;;;;;;;;5052926;28;8780;-81
2021/12/12 03:30:47;;;;;;;;;247.00;247.00;;;;;;;;5052217;28;8784;-80
2021/12/12 03:33:13;;;;;;;;;228.60;228.60;;;;;;;;5052592;27;8953;-80
2021/12/12 03:35:38;;;;;;;;;233.00;233.00;;;;;;;;5052419;28;8800;-81
2021/12/12 03:38:04;;;;;;;;;228.00;228.00;;;;;;;;5052093;27;8839;-81
2021/12/12 03:40:34;;;;;;;;;230.40;229.60;;;;;;;;5052609;28;8799;-81
2021/12/12 03:43:04;;;;;;;;;225.17;224.17;;;;;;;;5055576;27;8823;-81
2021/12/12 03:45:29;;;;;;;;;213.50;212.83;;;;;;;;5079810;27;8804;-81
2021/12/12 03:48:04;;;;;;;;;198.00;196.25;;;;;;;;5052124;27;8832;-81
2021/12/12 03:50:31;;;;;;;;;210.00;207.00;;;;;;;;5052464;27;11576;-80
2021/12/12 03:52:57;;;;;;;;;208.20;208.20;;;;;;;;5050481;28;8876;-78
2021/12/12 03:55:23;;;;;;;;;202.00;201.60;;;;;;;;5052272;27;8792;-79
2021/12/12 03:57:49;;;;;;;;;203.60;202.80;;;;;;;;5051864;27;9650;-79
2021/12/12 04:00:17;;;;;;;;;198.33;198.00;;;;;;;;5052342;27;9515;-79
2021/12/12 04:02:43;;;;;;;;;191.40;191.40;;;;;;;;5051988;28;8970;-79
2021/12/12 04:05:08;;;;;;;;;200.67;200.33;;;;;;;;5052002;27;8826;-79
2021/12/12 04:07:34;;;;;;;;;192.25;191.50;;;;;;;;5053100;27;9663;-79
2021/12/12 04:09:59;;;;;;;;;182.75;181.75;;;;;;;;5043801;27;8822;-79
2021/12/12 04:12:26;;;;;;;;;197.00;196.40;;;;;;;;5049847;27;8846;-79
2021/12/12 04:14:52;;;;;;;;;187.17;187.17;;;;;;;;5052075;27;8796;-79
2021/12/12 04:17:19;;;;;;;;;181.75;181.75;;;;;;;;5052180;28;8788;-79
2021/12/12 04:19:46;;;;;;;;;182.80;182.60;;;;;;;;5052017;27;8811;-79
2021/12/12 04:22:11;;;;;;;;;183.25;182.50;;;;;;;;5052093;28;9760;-79
2021/12/12 04:24:39;;;;;;;;;185.80;185.00;;;;;;;;5052258;28;9897;-79
2021/12/12 04:27:05;;;;;;;;;171.60;170.00;;;;;;;;5051683;27;9666;-79
2021/12/12 04:29:32;;;;;;;;;175.60;174.20;;;;;;;;5052447;28;8788;-79
2021/12/12 04:32:06;;;;;;;;;176.00;176.00;;;;;;;;5050367;27;11645;-79
2021/12/12 04:34:33;;;;;;;;;179.40;179.20;;;;;;;;5052403;28;8812;-79
2021/12/12 04:37:02;;;;;;;;;173.50;172.75;;;;;;;;5051456;27;8843;-79
2021/12/12 04:39:29;;;;;;;;;171.20;170.60;;;;;;;;5052010;28;11539;-79
2021/12/12 04:41:59;;;;;;;;;169.80;169.80;;;;;;;;5051534;27;8892;-79
2021/12/12 04:44:27;;;;;;;;;178.20;177.60;;;;;;;;5053293;27;8765;-79
2021/12/12 04:49:55;;;;;;;;;172.00;171.40;;;;;;;;5051906;28;8784;-79
2021/12/12 04:52:25;;;;;;;;;183.20;180.00;;;;;;;;5052019;28;8772;-79
2021/12/12 04:55:03;;;;;;;;;163.75;163.00;;;;;;;;5051409;27;9471;-79
2021/12/12 04:57:36;;;;;;;;;166.20;165.80;;;;;;;;5050461;27;8881;-79
2021/12/12 05:00:21;;;;;;;;;164.40;164.40;;;;;;;;5051623;27;8816;-79
2021/12/12 05:02:57;;;;;;;;;175.80;175.80;;;;;;;;5051281;27;8816;-79
2021/12/12 05:05:28;;;;;;;;;185.25;183.50;;;;;;;;5051519;27;8788;-79
2021/12/12 05:08:04;;;;;;;;;168.50;166.25;;;;;;;;5052534;27;10221;-79
2021/12/12 05:10:34;;;;;;;;;163.80;163.60;;;;;;;;5039562;28;8790;-79
2021/12/12 05:13:35;;;;;;;;;170.80;168.20;;;;;;;;5053070;27;8830;-79
2021/12/12 05:16:05;;;;;;;;;169.60;167.20;;;;;;;;5126512;27;8787;-79
2021/12/12 05:18:35;;;;;;;;;172.80;171.60;;;;;;;;5057522;27;8877;-80
2021/12/12 05:21:23;;;;;;;;;164.25;161.50;;;;;;;;5051110;27;8815;-79
2021/12/12 05:23:50;;;;;;;;;166.20;166.20;;;;;;;;5048173;28;8760;-79
2021/12/12 05:26:20;;;;;;;;;165.00;164.00;;;;;;;;5051477;28;8808;-79
2021/12/12 05:28:53;;;;;;;;;171.80;171.80;;;;;;;;5051076;27;8780;-79
2021/12/12 05:31:20;;;;;;;;;172.17;171.33;;;;;;;;5051609;28;8756;-79
2021/12/12 05:33:45;;;;;;;;;166.83;166.50;;;;;;;;5050995;27;9783;-79
2021/12/12 05:36:11;;;;;;;;;173.50;172.00;;;;;;;;5051547;28;8808;-79
2021/12/12 05:38:37;;;;;;;;;172.00;170.60;;;;;;;;5049555;27;11506;-79
2021/12/12 05:41:03;;;;;;;;;174.83;174.33;;;;;;;;5051011;28;8819;-80
2021/12/12 05:43:29;;;;;;;;;173.67;172.83;;;;;;;;5050666;27;8826;-79
2021/12/12 05:45:54;;;;;;;;;173.00;172.80;;;;;;;;5055187;27;8946;-79
2021/12/12 05:48:21;;;;;;;;;176.00;175.20;;;;;;;;5051164;27;8824;-79
2021/12/12 05:50:46;;;;;;;;;176.00;175.80;;;;;;;;5050726;27;8800;-79
2021/12/12 05:53:13;;;;;;;;;177.80;177.60;;;;;;;;5051133;27;8897;-79
2021/12/12 05:55:38;;;;;;;;;177.50;177.17;;;;;;;;5050844;28;8843;-79
2021/12/12 05:58:06;;;;;;;;;188.00;187.20;;;;;;;;5049514;27;8832;-80
2021/12/12 06:00:33;;;;;;;;;175.83;175.33;;;;;;;;5051238;28;8914;-79
2021/12/12 06:02:59;;;;;;;;;182.50;181.50;;;;;;;;5050688;27;8789;-79
2021/12/12 06:05:25;;;;;;;;;179.40;177.40;;;;;;;;5050880;27;8824;-80
2021/12/12 06:07:53;;;;;;;;;183.60;182.60;;;;;;;;5052469;27;8852;-79
2021/12/12 06:10:20;;;;;;;;;172.00;170.80;;;;;;;;5040354;28;8799;-80
2021/12/12 06:12:46;;;;;;;;;185.67;185.00;;;;;;;;5048322;27;8816;-80
2021/12/12 06:15:14;;;;;;;;;185.60;185.60;;;;;;;;5050861;28;8828;-80
2021/12/12 06:17:40;;;;;;;;;176.00;176.00;;;;;;;;5051566;27;8811;-80
2021/12/12 06:20:06;;;;;;;;;184.17;184.17;;;;;;;;5050834;28;8935;-80
2021/12/12 06:22:32;;;;;;;;;182.50;181.83;;;;;;;;5050576;27;8858;-80
2021/12/12 06:24:57;;;;;;;;;180.40;179.40;;;;;;;;5050094;27;8808;-80
2021/12/12 06:27:23;;;;;;;;;192.50;192.50;;;;;;;;5050242;28;8916;-79
2021/12/12 06:29:52;;;;;;;;;182.80;182.20;;;;;;;;5048355;27;8807;-80
2021/12/12 06:32:17;;;;;;;;;189.67;189.67;;;;;;;;5050678;28;9734;-80
2021/12/12 06:34:43;;;;;;;;;180.17;179.83;;;;;;;;5050189;27;8875;-80
2021/12/12 06:37:09;;;;;;;;;184.17;184.17;;;;;;;;5053186;27;8894;-80
2021/12/12 06:39:35;;;;;;;;;179.80;179.40;;;;;;;;5053319;28;8777;-80
2021/12/12 06:42:01;;;;;;;;;173.00;173.00;;;;;;;;5051503;27;9639;-79
2021/12/12 06:44:27;;;;;;;;;194.67;193.33;;;;;;;;5056503;27;8806;-79
2021/12/12 06:46:53;;;;;;;;;190.40;190.00;;;;;;;;5051291;28;9583;-79
2021/12/12 06:49:19;;;;;;;;;192.17;191.83;;;;;;;;5053158;27;8807;-79
2021/12/12 06:51:50;;;;;;;;;193.67;193.17;;;;;;;;5052584;28;8792;-79
2021/12/12 06:54:17;;;;;;;;;185.50;184.67;;;;;;;;5052011;27;8784;-79
2021/12/12 06:56:43;;;;;;;;;192.33;192.00;;;;;;;;5052378;27;8992;-79
2021/12/12 06:59:08;;;;;;;;;194.67;194.50;;;;;;;;5051765;28;8812;-79
2021/12/12 07:01:34;;;;;;;;;207.80;207.80;;;;;;;;5053248;27;8836;-79
2021/12/12 07:04:00;;;;;;;;;195.33;195.33;;;;;;;;5052836;28;8796;-79
2021/12/12 07:06:27;;;;;;;;;192.75;191.75;;;;;;;;5057752;27;8866;-79
2021/12/12 07:08:53;;;;;;;;;169.40;169.40;;;;;;;;5052520;28;11488;-79
2021/12/12 07:11:19;;;;;;;;;189.40;189.40;;;;;;;;5055061;27;9516;-79
2021/12/12 07:13:46;;;;;;;;;194.40;194.40;;;;;;;;5052800;28;8854;-79
2021/12/12 07:16:11;;;;;;;;;193.00;193.00;;;;;;;;5052628;27;8808;-79
2021/12/12 07:18:37;;;;;;;;;171.40;171.40;;;;;;;;5052963;27;8855;-79
2021/12/12 07:21:06;;;;;;;;;172.00;172.00;;;;;;;;5052526;28;8911;-79
2021/12/12 07:23:32;;;;;;;;;170.50;170.50;;;;;;;;5052764;27;8815;-79
2021/12/12 07:25:59;;;;;;;;;191.00;191.00;;;;;;;;5051801;28;11570;-79
2021/12/12 07:28:26;;;;;;;;;142.67;141.50;;;;;;;;5052666;27;8828;-79
2021/12/12 07:30:51;;;;;;;;;183.40;183.40;;;;;;;;5039282;28;8898;-79
2021/12/12 07:33:17;;;;;;;;;155.83;155.33;;;;;;;;5053020;27;9574;-79
2021/12/12 07:35:43;;;;;;;;;173.00;173.00;;;;;;;;5052356;27;9677;-79
2021/12/12 07:38:10;;;;;;;;;157.67;157.67;;;;;;;;5052559;28;8759;-78
2021/12/12 07:40:36;;;;;;;;;107.40;103.00;;;;;;;;5052700;27;8737;-78
2021/12/12 07:43:02;;;;;;;;;132.60;130.20;;;;;;;;5054692;27;11369;-80
2021/12/12 07:45:29;;;;;;;;;84.80;79.00;;;;;;;;5056163;27;8796;-80
2021/12/12 07:47:54;;;;;;;;;28.00;26.75;;;;;;;;5052042;28;8812;-79
2021/12/12 07:50:21;;;;;;;;;126.00;123.20;;;;;;;;5065596;27;8798;-78
2021/12/12 07:52:50;;;;;;;;;201.29;201.29;;;;;;;;5052228;28;8788;-79
2021/12/12 07:55:15;;;;;;;;;80.60;73.40;;;;;;;;5040428;27;8850;-79
2021/12/12 07:57:41;;;;;;;;;33.50;31.25;;;;;;;;5052478;28;8843;-78
2021/12/12 08:00:09;;;;;;;;;125.67;122.00;;;;;;;;5052502;27;8780;-78
2021/12/12 08:02:34;;;;;;;;;74.25;64.00;;;;;;;;5068402;27;8916;-79
2021/12/12 08:05:00;;;;;;;;;18.25;18.25;;;;;;;;5052728;27;9014;-78
2021/12/12 08:07:27;;;;;;;;;18.00;18.00;;;;;;;;5110241;27;8892;-75
2021/12/12 08:09:53;;;;;;;;;66.00;60.80;;;;;;;;5051669;28;8804;-76
2021/12/12 08:12:20;;;;;;;;;61.50;53.00;;;;;;;;5098963;27;8796;-77
2021/12/12 08:14:46;;;;;;;;;129.33;126.33;;;;;;;;5063104;27;8836;-76
2021/12/12 08:17:12;;;;;;;;;121.00;118.00;;;;;;;;5054754;27;8796;-76
2021/12/12 08:19:38;;;;;;;;;168.83;168.83;;;;;;;;5051698;27;11577;-76
2021/12/12 08:22:05;;;;;;;;;149.33;148.83;;;;;;;;5054925;27;8804;-76
2021/12/12 08:24:31;;;;;;;;;108.60;104.20;;;;;;;;5052308;28;8808;-76
2021/12/12 08:26:56;;;;;;;;;122.50;119.33;;;;;;;;5051431;27;8816;-77
2021/12/12 08:29:22;;;;;;;;;62.00;54.25;;;;;;;;5052388;28;8800;-76
2021/12/12 08:31:47;;;;;;;;;120.20;117.60;;;;;;;;5052569;27;8914;-76
2021/12/12 08:34:13;;;;;;;;;111.80;107.80;;;;;;;;5051690;28;8843;-76
2021/12/12 08:36:41;;;;;;;;;65.75;57.00;;;;;;;;5051916;27;8858;-77
2021/12/12 08:39:08;;;;;;;;;102.00;98.25;;;;;;;;5052269;28;8804;-78
2021/12/12 08:41:35;;;;;;;;;128.20;125.40;;;;;;;;5051684;27;8794;-79
2021/12/12 08:44:01;;;;;;;;;88.20;82.40;;;;;;;;5056736;27;8804;-80
2021/12/12 08:46:27;;;;;;;;;124.50;121.33;;;;;;;;5053712;27;8787;-75
2021/12/12 08:48:52;;;;;;;;;93.60;88.20;;;;;;;;5051347;28;9551;-77
2021/12/12 08:51:30;;;;;;;;;145.33;143.50;;;;;;;;5052676;27;8823;-77
2021/12/12 08:53:56;;;;;;;;;59.20;52.60;;;;;;;;5051564;27;8781;-77
2021/12/12 08:56:42;;;;;;;;;46.00;40.75;;;;;;;;5051775;28;8732;-78
2021/12/12 08:59:08;;;;;;;;;36.00;32.50;;;;;;;;5040668;28;8888;-78
2021/12/12 09:01:36;;;;;;;;;0.00;0.00;;;;;;;;5051777;27;10478;-78
2021/12/12 09:04:02;;;;;;;;;8.50;8.50;;;;;;;;5051730;28;8764;-77
2021/12/12 09:06:29;;;;;;;;;1.00;1.00;;;;;;;;5081503;27;8809;-78
2021/12/12 09:09:00;;;;;;;;;0.00;0.00;;;;;;;;5054913;27;9716;-79
2021/12/12 09:11:29;;;;;;;;;56.20;49.80;;;;;;;;5086310;27;8787;-79
2021/12/12 09:14:14;;;;;;;;;25.25;25.00;;;;;;;;5061921;27;9202;-79
2021/12/12 09:16:42;;;;;;;;;15.25;15.25;;;;;;;;5051635;28;8741;-79
2021/12/12 09:19:12;;;;;;;;;48.60;42.40;;;;;;;;5052002;27;8796;-79
2021/12/12 09:21:47;;;;;;;;;47.20;41.20;;;;;;;;5052418;27;8812;-78
2021/12/12 09:24:16;;;;;;;;;4.75;4.75;;;;;;;;5048739;28;8923;-78
2021/12/12 09:26:44;;;;;;;;;53.40;47.20;;;;;;;;5049146;28;8828;-80
2021/12/12 09:29:15;;;;;;;;;1.00;1.00;;;;;;;;5052128;27;9788;-78
2021/12/12 09:32:01;;;;;;;;;1.75;1.75;;;;;;;;5052477;27;8796;-78
2021/12/12 09:34:49;;;;;;;;;0.00;0.00;;;;;;;;5045738;28;9694;-79
2021/12/12 09:37:20;;;;;;;;;7.75;7.75;;;;;;;;5041024;28;8817;-78
2021/12/12 09:39:47;;;;;;;;;19.50;19.00;;;;;;;;5051116;27;8781;-79
2021/12/12 09:42:39;;;;;;;;;16.25;16.25;;;;;;;;5057356;27;8901;-78
2021/12/12 09:45:04;;;;;;;;;5.50;5.50;;;;;;;;5049973;27;8808;-78
2021/12/12 09:48:14;;;;;;;;;3.25;3.25;;;;;;;;5051631;27;8832;-78
2021/12/12 09:51:15;;;;;;;;;0.00;0.00;;;;;;;;5050896;28;8884;-79
2021/12/12 09:53:41;;;;;;;;;0.00;0.00;;;;;;;;5055072;27;8796;-82
2021/12/12 09:56:11;;;;;;;;;0.25;0.25;;;;;;;;5051043;27;8796;-78
2021/12/12 09:58:43;;;;;;;;;0.00;0.00;;;;;;;;5050965;27;8740;-80
2021/12/12 10:01:17;;;;;;;;;0.00;0.00;;;;;;;;5051330;28;8788;-80
2021/12/12 10:03:49;;;;;;;;;0.00;0.00;;;;;;;;5050471;27;9744;-81
2021/12/12 10:06:40;;;;;;;;;0.00;0.00;;;;;;;;5061591;27;8823;-79
2021/12/12 10:09:10;;;;;;;;;0.00;0.00;;;;;;;;5075813;27;8812;-81
2021/12/12 10:11:50;;;;;;;;;0.00;0.00;;;;;;;;5055580;27;8781;-81
2021/12/12 10:14:24;;;;;;;;;0.50;0.50;;;;;;;;5049112;27;8757;-76
2021/12/12 10:16:50;;;;;;;;;0.00;0.00;;;;;;;;5061518;28;9767;-77
2021/12/12 10:19:39;;;;;;;;;0.00;0.00;;;;;;;;5071282;27;8806;-77
2021/12/12 10:22:13;;;;;;;;;0.00;0.00;;;;;;;;5070855;28;8823;-76
2021/12/12 10:24:42;;;;;;;;;0.00;0.00;;;;;;;;5069576;27;8857;-77
2021/12/12 10:27:11;;;;;;;;;0.00;0.00;;;;;;;;5071190;28;8802;-77
2021/12/12 10:29:55;;;;;;;;;0.00;0.00;;;;;;;;5071166;27;8815;-76
2021/12/12 10:32:25;;;;;;;;;0.00;0.00;;;;;;;;5071144;28;8873;-76
2021/12/12 10:34:57;;;;;;;;;0.00;0.00;;;;;;;;5070655;27;8770;-76
2021/12/12 10:37:26;;;;;;;;;0.00;0.00;;;;;;;;5071209;27;8889;-78
2021/12/12 10:40:09;;;;;;;;;0.00;0.00;;;;;;;;5070294;28;8817;-81
2021/12/12 10:42:41;;;;;;;;;0.00;0.00;;;;;;;;5071121;27;8746;-78
2021/12/12 10:45:09;;;;;;;;;0.00;0.00;;;;;;;;5059192;27;8822;-78
2021/12/12 10:48:00;;;;;;;;;0.00;0.00;;;;;;;;5039946;28;8904;-78
2021/12/12 10:50:35;;;;;;;;;0.00;0.00;;;;;;;;5066862;27;8800;-78
2021/12/12 10:53:22;;;;;;;;;0.00;0.00;;;;;;;;5049049;28;8922;-80
2021/12/12 10:55:47;;;;;;;;;0.00;0.00;;;;;;;;5050227;27;8831;-79
2021/12/12 10:58:20;;;;;;;;;0.00;0.00;;;;;;;;5051247;28;8808;-79
2021/12/12 11:00:51;;;;;;;;;0.00;0.00;;;;;;;;5051400;27;8819;-82
2021/12/12 11:03:19;;;;;;;;;0.00;0.00;;;;;;;;5055987;28;8804;-79
2021/12/12 11:05:47;;;;;;;;;0.00;0.00;;;;;;;;5060405;27;8797;-79
2021/12/12 11:08:21;;;;;;;;;0.00;0.00;;;;;;;;5054824;27;8818;-78
2021/12/12 11:10:47;;;;;;;;;0.00;0.00;;;;;;;;5055040;27;8922;-77
2021/12/12 11:13:13;;;;;;;;;0.00;0.00;;;;;;;;5050726;28;8768;-78
2021/12/12 11:16:04;;;;;;;;;0.00;0.00;;;;;;;;5050346;27;8808;-77
2021/12/12 11:18:48;;;;;;;;;0.00;0.00;;;;;;;;5053288;28;8780;-77
2021/12/12 11:21:18;;;;;;;;;0.00;0.00;;;;;;;;5039786;28;8788;-78
2021/12/12 11:24:00;;;;;;;;;0.00;0.00;;;;;;;;5053100;27;9746;-77
2021/12/12 11:26:40;;;;;;;;;0.00;0.00;;;;;;;;5053513;27;8819;-78
2021/12/12 11:29:15;;;;;;;;;0.00;0.00;;;;;;;;5053113;27;8857;-78
2021/12/12 11:31:43;;;;;;;;;0.00;0.00;;;;;;;;5053425;28;8784;-78
2021/12/12 11:34:09;;;;;;;;;0.00;0.00;;;;;;;;5040402;27;8904;-78
2021/12/12 11:36:49;;;;;;;;;0.00;0.00;;;;;;;;5053416;28;8884;-78
2021/12/12 11:39:14;;;;;;;;;0.00;0.00;;;;;;;;5054430;28;8795;-78
2021/12/12 11:41:54;;;;;;;;;0.00;0.00;;;;;;;;5052989;27;8804;-78
2021/12/12 11:44:23;;;;;;;;;0.00;0.00;;;;;;;;5054181;27;8819;-79
2021/12/12 11:46:49;;;;;;;;;0.00;0.00;;;;;;;;5043962;27;8930;-78
2021/12/12 11:49:23;;;;;;;;;0.00;0.00;;;;;;;;5052744;28;8872;-79
2021/12/12 11:52:07;;;;;;;;;0.00;0.00;;;;;;;;5051507;27;8725;-79
2021/12/12 11:54:35;;;;;;;;;0.00;0.00;;;;;;;;5047065;28;8788;-80
2021/12/12 11:57:11;;;;;;;;;0.00;0.00;;;;;;;;5052976;28;8733;-80
2021/12/12 11:59:44;;;;;;;;;0.00;0.00;;;;;;;;5054222;27;8748;-79
2021/12/12 12:02:25;;;;;;;;;0.00;0.00;;;;;;;;5053012;27;8815;-79
2021/12/12 12:05:00;;;;;;;;;0.00;0.00;;;;;;;;5052621;27;8804;-79
2021/12/12 12:07:32;;;;;;;;;0.00;0.00;;;;;;;;5059417;27;8852;-78
2021/12/12 12:09:57;;;;;;;;;0.00;0.00;;;;;;;;5052610;28;9643;-79
2021/12/12 12:12:28;;;;;;;;;0.00;0.00;;;;;;;;5119995;27;9001;-78
2021/12/12 12:15:03;;;;;;;;;0.00;0.00;;;;;;;;5042079;28;8808;-79
2021/12/12 12:17:31;;;;;;;;;0.00;0.00;;;;;;;;5054227;28;8876;-77
2021/12/12 12:20:04;;;;;;;;;0.00;0.00;;;;;;;;5052253;27;8728;-78
2021/12/12 12:22:59;;;;;;;;;0.00;0.00;;;;;;;;5052597;27;9760;-78
2021/12/12 12:25:40;;;;;;;;;0.00;0.00;;;;;;;;5120424;27;8790;-78
2021/12/12 12:28:07;;;;;;;;;0.00;0.00;;;;;;;;5052501;28;8880;-79
2021/12/12 12:30:32;;;;;;;;;0.00;0.00;;;;;;;;5052135;27;8814;-79
2021/12/12 12:33:09;;;;;;;;;0.00;0.00;;;;;;;;5051432;27;8835;-79
2021/12/12 12:35:53;;;;;;;;;0.00;0.00;;;;;;;;5052253;28;8912;-79
2021/12/12 12:38:31;;;;;;;;;0.00;0.00;;;;;;;;5052269;27;8796;-79
2021/12/12 12:40:56;;;;;;;;;0.00;0.00;;;;;;;;5051739;27;8803;-80
2021/12/12 12:43:39;;;;;;;;;0.00;0.00;;;;;;;;5071209;27;8816;-80
2021/12/12 12:46:08;;;;;;;;;0.00;0.00;;;;;;;;5052541;27;8812;-80
2021/12/12 12:48:45;;;;;;;;;0.00;0.00;;;;;;;;5051178;28;8807;-80
2021/12/12 12:51:10;;;;;;;;;0.00;0.00;;;;;;;;5052268;27;8896;-78
2021/12/12 12:53:51;;;;;;;;;0.00;0.00;;;;;;;;5051894;28;8812;-78
2021/12/12 12:56:35;;;;;;;;;0.00;0.00;;;;;;;;5050090;27;8801;-78
2021/12/12 12:59:16;;;;;;;;;0.00;0.00;;;;;;;;5054092;27;9205;-77
2021/12/12 13:01:42;;;;;;;;;0.00;0.00;;;;;;;;5051740;27;8784;-78
2021/12/12 13:04:07;;;;;;;;;0.00;0.00;;;;;;;;5052168;28;8823;-78
2021/12/12 13:06:51;;;;;;;;;0.00;0.00;;;;;;;;5054354;27;8840;-78
2021/12/12 13:09:21;;;;;;;;;0.00;0.00;;;;;;;;5051903;28;8785;-79
2021/12/12 13:11:52;;;;;;;;;0.00;0.00;;;;;;;;5073799;27;8788;-78
2021/12/12 13:14:21;;;;;;;;;0.00;0.00;;;;;;;;5051866;27;8792;-77
2021/12/12 13:16:49;;;;;;;;;0.00;0.00;;;;;;;;5050261;28;8784;-77
2021/12/12 13:19:26;;;;;;;;;0.00;0.00;;;;;;;;5051680;27;8942;-77
2021/12/12 13:22:02;;;;;;;;;0.00;0.00;;;;;;;;5051666;28;8799;-78
2021/12/12 13:24:33;;;;;;;;;0.00;0.00;;;;;;;;5052634;27;9683;-77
2021/12/12 13:27:11;;;;;;;;;0.00;0.00;;;;;;;;5051594;27;8847;-78
2021/12/12 13:29:45;;;;;;;;;0.00;0.00;;;;;;;;5039967;28;8907;-79
2021/12/12 13:32:21;;;;;;;;;0.00;0.00;;;;;;;;5052701;27;8919;-79
2021/12/12 13:35:10;;;;;;;;;0.00;0.00;;;;;;;;5047592;27;8824;-78
2021/12/12 13:37:38;;;;;;;;;0.00;0.00;;;;;;;;5040677;28;8761;-78
2021/12/12 13:40:15;;;;;;;;;0.00;0.00;;;;;;;;5051030;28;9769;-80
2021/12/12 13:42:59;;;;;;;;;0.00;0.00;;;;;;;;5047562;28;8775;-79
2021/12/12 13:45:38;;;;;;;;;0.00;0.00;;;;;;;;5048338;27;8812;-81
2021/12/12 13:48:03;;;;;;;;;0.00;0.00;;;;;;;;5050917;28;8809;-78
2021/12/12 13:50:48;;;;;;;;;0.00;0.00;;;;;;;;5050992;28;8935;-81
2021/12/12 13:53:20;;;;;;;;;0.00;0.00;;;;;;;;5050885;27;8816;-80
2021/12/12 13:55:57;;;;;;;;;0.00;0.00;;;;;;;;5050979;28;8818;-81
2021/12/12 13:58:22;;;;;;;;;0.00;0.00;;;;;;;;5037409;28;8832;-82
2021/12/12 14:00:50;;;;;;;;;0.00;0.00;;;;;;;;5050887;27;8818;-80
2021/12/12 14:03:15;;;;;;;;;0.00;0.00;;;;;;;;5052177;27;8856;-81
2021/12/12 14:05:44;;;;;;;;;0.00;0.00;;;;;;;;5057906;27;8882;-80
2021/12/12 14:08:09;;;;;;;;;0.00;0.00;;;;;;;;5064107;27;8777;-80
2021/12/12 14:10:39;;;;;;;;;0.00;0.00;;;;;;;;5049375;28;8816;-80
2021/12/12 14:13:10;;;;;;;;;0.00;0.00;;;;;;;;5045334;28;8819;-79
2021/12/12 14:15:38;;;;;;;;;0.00;0.00;;;;;;;;5049880;28;8812;-79
2021/12/12 14:18:06;;;;;;;;;0.00;0.00;;;;;;;;5051068;27;8784;-80
2021/12/12 14:20:47;;;;;;;;;0.00;0.00;;;;;;;;5050921;27;9273;-82
2021/12/12 14:23:15;;;;;;;;;0.00;0.00;;;;;;;;5049618;27;8780;-81
2021/12/12 14:25:41;;;;;;;;;0.00;0.00;;;;;;;;5049997;28;8796;-77
2021/12/12 14:28:08;;;;;;;;;0.00;0.00;;;;;;;;5051662;27;8820;-79
2021/12/12 14:30:36;;;;;;;;;0.00;0.00;;;;;;;;5050978;28;8768;-79
2021/12/12 14:33:04;;;;;;;;;0.00;0.00;;;;;;;;5051909;27;8821;-81
2021/12/12 14:35:36;;;;;;;;;0.00;0.00;;;;;;;;5071023;28;8785;-81
2021/12/12 14:38:03;;;;;;;;;0.00;0.00;;;;;;;;5070401;27;8897;-80
2021/12/12 14:40:30;;;;;;;;;0.00;0.00;;;;;;;;5064607;27;8784;-81
2021/12/12 14:43:00;;;;;;;;;0.00;0.00;;;;;;;;5050021;27;8930;-77
2021/12/12 14:45:37;;;;;;;;;0.00;0.00;;;;;;;;5055313;27;8792;-79
2021/12/12 14:48:06;;;;;;;;;0.00;0.00;;;;;;;;5037334;28;8812;-82
2021/12/12 14:50:34;;;;;;;;;0.00;0.00;;;;;;;;5050636;28;8784;-80
2021/12/12 14:53:04;;;;;;;;;0.00;0.00;;;;;;;;5048979;27;8791;-79
2021/12/12 14:55:31;;;;;;;;;0.00;0.00;;;;;;;;5052595;27;8737;-80
2021/12/12 14:58:04;;;;;;;;;0.00;0.00;;;;;;;;5053350;28;8895;-81